Andersen AFB, Guam
Current Conditions -  °F | °C
As of 10:48 PM on Saturday 20 Dec 2014 (Local Time) from PGUA Reporting Station
Scattered Clouds Scattered Clouds  
Wind Chill: 81°   Ceiling: Unl
Heat Index: 85°   Visibility: 10mi
Dew Point: 73°   Wind: 16mph
Humidity: 79%   Direction: 70°ENE
Pressure: 29.91"   Gusts: NA
Location:  13.58°N, 144.92°E
Report Text: PGUA 201248Z AUTO 07014KT 10SM SCT021 SCT033 27/23 A2991 RMK AO2 $
Loading
Personal Weather Stations






























Interactive Weather Map New forecast layout! Learn more

10-Day Weather Forecast

Advertisements
Track Severe Weather on mobile